Data for 03/13/2009

Time Sea-Level Adjusted Pressure Absolute Pressure Temperature Relative Humidity Dew Point   
(mb) (inHg) (mb) (inHg) (C) (F) (%) (C) (F)
00:05 1023 30.21 853 25.19 -5.4 22.3 56 -12.9 8.8
00:10 1023 30.21 853 25.19 -5.2 22.6 58 -12.3 9.8
00:15 1023 30.21 853 25.19 -5.1 22.8 58 -12.2 10
00:20 1023 30.21 853 25.19 -5 22.9 57 -12.4 9.8
00:25 1023 30.21 853 25.19 -5.3 22.5 59 -12 10.4
00:30 1023 30.21 853 25.19 -5.7 21.7 60 -12.3 9.9
00:35 1023 30.21 853 25.19 -6.2 20.9 61 -12.4 9.6
00:40 1024 30.24 853 25.19 -6.1 21.1 61 -12.5 9.5
00:45 1023 30.21 853 25.19 -5.6 21.9 59 -12.4 9.7
00:50 1024 30.24 853 25.19 -5.7 21.7 60 -12.3 9.9
00:55 1024 30.24 853 25.19 -5.9 21.3 61 -12.3 9.8
01:00 1023 30.21 853 25.19 -6.1 21.1 61 -12.4 9.7
01:05 1023 30.21 853 25.19 -5.7 21.8 58 -12.6 9.3
01:10 1023 30.21 853 25.19 -5.4 22.2 58 -12.5 9.5
01:15 1023 30.21 853 25.19 -5.3 22.4 57 -12.6 9.4
01:20 1023 30.21 853 25.19 -4.9 23.1 56 -12.4 9.8
01:25 1023 30.21 853 25.19 -4.7 23.5 56 -12.2 10
01:30 1023 30.21 853 25.19 -4.7 23.5 58 -11.8 10.8
01:35 1023 30.21 853 25.19 -5.3 22.5 59 -12.1 10.3
01:40 1023 30.21 853 25.19 -5.2 22.7 57 -12.5 9.5
01:45 1023 30.21 853 25.19 -5.3 22.5 57 -12.6 9.4
01:50 1023 30.21 853 25.19 -5.3 22.4 59 -12.2 10.1
01:55 1023 30.21 853 25.19 -5.4 22.2 58 -12.5 9.6
02:00 1023 30.21 853 25.19 -5.5 22.1 59 -12.3 9.8
02:05 1023 30.21 853 25.19 -5.4 22.3 57 -12.6 9.2
02:10 1023 30.21 852 25.16 -5.4 22.3 58 -12.5 9.6
02:15 1023 30.21 852 25.16 -5.4 22.3 59 -12.2 10
02:20 1023 30.21 852 25.16 -5.5 22.2 58 -12.6 9.4
02:25 1023 30.21 852 25.16 -5.2 22.6 56 -12.6 9.3
02:30 1023 30.21 852 25.16 -5.3 22.4 57 -12.6 9.4
02:35 1023 30.21 853 25.19 -5.4 22.2 58 -12.5 9.5
02:40 1023 30.21 853 25.19 -5.4 22.2 58 -12.4 9.6
02:45 1023 30.21 853 25.19 -5.4 22.3 57 -12.6 9.3
02:50 1023 30.21 853 25.19 -5.3 22.4 58 -12.4 9.6
02:55 1023 30.21 853 25.19 -5.4 22.3 58 -12.4 9.7
03:00 1023 30.21 853 25.19 -5.6 22 58 -12.5 9.5
03:05 1023 30.21 853 25.19 -5.7 21.7 61 -12.1 10.3
03:10 1023 30.21 853 25.19 -5.7 21.7 60 -12.4 9.8
03:15 1023 30.21 853 25.19 -5.8 21.6 60 -12.3 9.8
03:20 1023 30.21 853 25.19 -5.8 21.6 59 -12.6 9.3
03:25 1023 30.21 852 25.16 -5.7 21.7 59 -12.5 9.4
03:30 1023 30.21 852 25.16 -5.7 21.7 59 -12.5 9.6
03:35 1023 30.21 852 25.16 -5.7 21.8 59 -12.4 9.7
03:40 1023 30.21 852 25.16 -5.6 21.9 58 -12.6 9.3
03:45 1023 30.21 852 25.16 -5.6 21.9 58 -12.6 9.2
03:50 1023 30.21 852 25.16 -5.5 22.1 62 -11.7 10.9
03:55 1023 30.21 852 25.16 -5.6 21.9 59 -12.4 9.6
04:00 1023 30.21 852 25.16 -5.8 21.5 59 -12.6 9.3
04:05 1023 30.21 852 25.16 -6 21.3 59 -12.8 9
04:10 1023 30.21 852 25.16 -6 21.1 58 -13 8.6
04:15 1023 30.21 852 25.16 -6 21.1 60 -12.7 9.1
04:20 1023 30.21 852 25.16 -6.4 20.4 61 -12.9 8.9
04:25 1023 30.21 852 25.16 -6.5 20.3 61 -12.8 9
04:30 1023 30.21 852 25.16 -6.7 20 62 -12.8 9
04:35 1023 30.21 852 25.16 -6.7 19.9 61 -13 8.7
04:40 1023 30.21 852 25.16 -6.4 20.4 60 -12.9 8.8
04:45 1023 30.21 852 25.16 -6.1 21 59 -12.8 9
04:50 1023 30.21 852 25.16 -6 21.2 60 -12.6 9.3
04:55 1023 30.21 852 25.16 -5.9 21.3 59 -12.7 9.1
05:00 1023 30.21 852 25.16 -5.6 21.9 58 -12.7 9.2
05:05 1023 30.21 852 25.16 -5.4 22.2 57 -12.6 9.3
05:10 1023 30.21 852 25.16 -5.7 21.8 58 -12.6 9.3
05:15 1023 30.21 852 25.16 -6.1 21 60 -12.6 9.2
05:20 1023 30.21 852 25.16 -6.1 21.1 58 -13 8.6
05:25 1023 30.21 852 25.16 -5.7 21.8 58 -12.6 9.3
05:30 1023 30.21 852 25.16 -5.8 21.5 59 -12.6 9.3
05:35 1023 30.21 852 25.16 -6 21.2 60 -12.6 9.3
05:40 1023 30.21 852 25.16 -6.3 20.6 61 -12.6 9.3
05:45 1023 30.21 852 25.16 -6.7 20 62 -12.7 9.1
05:50 1023 30.21 852 25.16 -6.9 19.7 62 -12.9 8.8
05:55 1023 30.21 852 25.16 -6.8 19.7 62 -12.9 8.9
06:00 1023 30.21 852 25.16 -6.9 19.6 63 -12.9 8.8
06:05 1023 30.21 852 25.16 -7 19.4 63 -13 8.6
06:10 1023 30.21 852 25.16 -7.1 19.3 62 -13.1 8.4
06:15 1023 30.21 852 25.16 -7.3 18.9 64 -13 8.5
06:20 1023 30.21 852 25.16 -7.5 18.5 65 -13 8.7
06:25 1023 30.21 852 25.16 -7.5 18.5 64 -13.2 8.2
06:30 1023 30.21 852 25.16 -7.1 19.2 62 -13.1 8.4
06:35 1023 30.21 852 25.16 -7 19.4 62 -13.1 8.4
06:40 1023 30.21 852 25.16 -7 19.4 61 -13.3 8.1
06:45 1023 30.21 852 25.16 -6.8 19.7 59 -13.5 7.7
06:50 1023 30.21 852 25.16 -6.7 20 59 -13.5 7.7
06:55 1023 30.21 852 25.16 -6.5 20.2 60 -13.1 8.4
07:00 1023 30.21 852 25.16 -6.6 20.1 62 -12.7 9.2
07:05 1023 30.21 852 25.16 -6.9 19.6 63 -12.8 9
07:10 1023 30.21 852 25.16 -7 19.3 64 -12.7 9.2
07:15 1023 30.21 852 25.16 -7.3 18.9 65 -12.8 9
07:20 1023 30.21 852 25.16 -7.4 18.7 64 -13.1 8.5
07:25 1023 30.21 852 25.16 -7.1 19.2 65 -12.7 9.2
07:30 1023 30.21 852 25.16 -6.8 19.7 62 -12.8 8.9
07:35 1022 30.18 852 25.16 -6.8 19.8 64 -12.6 9.4
07:40 1022 30.18 852 25.16 -6.9 19.5 63 -12.8 8.9
07:45 1022 30.18 852 25.16 -6.9 19.6 63 -12.9 8.8
07:50 1022 30.18 852 25.16 -6.6 20.1 61 -12.9 8.7
07:55 1022 30.18 852 25.16 -6.5 20.2 62 -12.6 9.2
08:00 1022 30.18 852 25.16 -7.1 19.3 64 -12.7 9.1
08:05 1022 30.18 852 25.16 -7.5 18.5 65 -12.9 8.7
08:10 1022 30.18 852 25.16 -7.5 18.5 64 -13.2 8.3
08:15 1022 30.18 852 25.16 -7 19.4 62 -13.1 8.5
08:20 1022 30.18 852 25.16 -5.8 21.5 58 -12.8 8.9
08:25 1022 30.18 852 25.16 -5.1 22.8 55 -12.9 8.9
08:30 1022 30.18 852 25.16 -5.3 22.4 57 -12.6 9.3
08:35 1022 30.18 852 25.16 -5.6 21.8 57 -12.9 8.9
08:40 1022 30.18 852 25.16 -5.7 21.8 57 -12.9 8.8
08:45 1022 30.18 851 25.13 -5.4 22.4 56 -12.8 9
08:50 1022 30.18 851 25.13 -5.1 22.8 55 -12.9 8.9
08:55 1022 30.18 851 25.13 -4.7 23.5 55 -12.5 9.4
09:00 1022 30.18 851 25.13 -4.2 24.5 53 -12.5 9.5
09:05 1022 30.18 851 25.13 -3.9 25.1 52 -12.3 9.9
09:10 1022 30.18 851 25.13 -4.3 24.2 54 -12.3 9.9
09:15 1022 30.18 851 25.13 -4.3 24.2 54 -12.2 10
09:20 1022 30.18 851 25.13 -4 24.7 53 -12.3 9.8
09:25 1022 30.18 851 25.13 -3.9 24.9 53 -12.2 10
09:30 1022 30.18 851 25.13 -3.9 25 53 -12.2 10
09:35 1022 30.18 851 25.13 -4.1 24.6 54 -12.2 10.1
09:40 1022 30.18 851 25.13 -4 24.9 52 -12.4 9.7
09:45 1022 30.18 851 25.13 -4 24.8 51 -12.6 9.3
09:50 1022 30.18 851 25.13 -3.7 25.3 51 -12.4 9.6
09:55 1022 30.18 851 25.13 -3.4 25.9 50 -12.4 9.7
10:00 1022 30.18 851 25.13 -3 26.6 48 -12.5 9.6
10:05 1022 30.18 851 25.13 -2.4 27.6 47 -12.4 9.7
10:10 1022 30.18 851 25.13 -1.9 28.5 47 -11.7 10.9
10:15 1022 30.18 851 25.13 -2.3 27.8 49 -11.7 10.9
10:20 1022 30.18 851 25.13 -2.4 27.6 49 -11.7 10.9
10:25 1022 30.18 851 25.13 -2.2 28.1 49 -11.5 11.2
10:30 1022 30.18 851 25.13 -2.1 28.3 50 -11 12.1
10:35 1022 30.18 851 25.13 -1.6 29.1 48 -11.2 11.8
10:40 1022 30.18 851 25.13 -1.8 28.7 51 -10.7 12.8
10:45 1022 30.18 851 25.13 -0.8 30.5 48 -10.6 12.9
10:50 1022 30.18 851 25.13 -0.2 31.7 43 -11.2 11.8
10:55 1022 30.18 851 25.13 0.5 33 41 -11.1 11.9
11:00 1022 30.18 851 25.13 0.9 33.5 44 -10.1 13.8
11:05 1022 30.18 851 25.13 0.4 32.8 43 -10.7 12.8
11:10 1022 30.18 851 25.13 0.3 32.6 42 -11 12.2
11:15 1022 30.18 851 25.13 0.4 32.8 44 -10.6 12.9
11:20 1022 30.18 851 25.13 0 32 44 -10.9 12.4
11:25 1022 30.18 851 25.13 -0.1 31.7 46 -10.5 13.2
11:30 1022 30.18 851 25.13 0.3 32.5 45 -10.3 13.4
11:35 1022 30.18 851 25.13 -0 31.9 44 -11 12.3
11:40 1022 30.18 851 25.13 -0.5 31.1 47 -10.4 13.2
11:45 1022 30.18 851 25.13 -0.5 31.1 44 -11.4 11.5
11:50 1022 30.18 851 25.13 -0.4 31.3 43 -11.5 11.3
11:55 1022 30.18 851 25.13 -0.9 30.4 44 -11.6 11
12:00 1022 30.18 851 25.13 -0.9 30.4 44 -11.7 11
12:05 1022 30.18 851 25.13 -0.3 31.4 41 -12 10.4
12:10 1021 30.15 851 25.13 -0.3 31.5 42 -11.6 11
12:15 1021 30.15 851 25.13 0.4 32.6 41 -11.5 11.2
12:20 1021 30.15 850 25.1 0.8 33.5 38 -11.9 10.6
12:25 1021 30.15 850 25.1 1.6 34.9 34 -12.5 9.5
12:30 1021 30.15 850 25.1 1.2 34.2 37 -11.8 10.7
12:35 1021 30.15 850 25.1 1.8 35.2 37 -11.3 11.7
12:40 1021 30.15 850 25.1 2 35.6 38 -10.8 12.6
12:45 1021 30.15 850 25.1 1.4 34.5 41 -10.5 13
12:50 1021 30.15 850 25.1 1.4 34.5 42 -10.3 13.5
12:55 1021 30.15 850 25.1 1.4 34.5 41 -10.4 13.2
13:00 1021 30.15 850 25.1 2 35.7 38 -10.8 12.5
13:05 1020 30.12 850 25.1 2.7 36.8 37 -10.8 12.6
13:10 1020 30.12 850 25.1 3 37.3 35 -11.2 11.9
13:15 1020 30.12 850 25.1 3 37.5 33 -11.6 11.2
13:20 1020 30.12 849 25.07 3 37.3 36 -10.8 12.5
13:25 1020 30.12 849 25.07 3.5 38.3 33 -11.4 11.5
13:30 1020 30.12 849 25.07 3.5 38.3 32 -11.7 11
13:35 1020 30.12 849 25.07 4.2 39.5 30 -11.8 10.8
13:40 1020 30.12 849 25.07 3.8 38.9 30 -12.4 9.6
13:45 1020 30.12 849 25.07 4.3 39.8 32 -10.8 12.5
13:50 1020 30.12 849 25.07 4.9 40.7 32 -10.5 13.1
13:55 1020 30.12 849 25.07 4.8 40.6 30 -11.3 11.7
14:00 1019 30.09 849 25.07 4.9 40.9 30 -11.1 12
14:05 1019 30.09 849 25.07 4.9 40.8 33 -10 14.1
14:10 1019 30.09 849 25.07 4.7 40.5 32 -10.7 12.7
14:15 1019 30.09 849 25.07 4.3 39.8 33 -10.7 12.8
14:20 1019 30.09 849 25.07 4.8 40.6 34 -9.9 14.2
14:25 1019 30.09 848 25.04 4.5 40 34 -9.9 14.1
14:30 1019 30.09 848 25.04 4.6 40.3 35 -9.6 14.8
14:35 1019 30.09 848 25.04 4.2 39.5 37 -9.2 15.5
14:40 1019 30.09 848 25.04 4.4 40 36 -9.3 15.2
14:45 1019 30.09 848 25.04 4.3 39.7 37 -9.2 15.5
14:50 1019 30.09 848 25.04 4.3 39.7 38 -8.7 16.3
14:55 1019 30.09 848 25.04 3.8 38.8 40 -8.7 16.4
15:00 1019 30.09 848 25.04 3.6 38.5 39 -9 15.7
15:05 1019 30.09 848 25.04 3.6 38.4 37 -9.9 14.2
15:10 1019 30.09 848 25.04 3.8 38.9 38 -9.3 15.3
15:15 1019 30.09 848 25.04 3.7 38.7 38 -9.4 15
15:20 1019 30.09 848 25.04 3.9 38.9 39 -8.8 16.1
15:25 1019 30.09 848 25.04 3.6 38.4 38 -9.5 14.9
15:30 1018 30.06 848 25.04 3.3 37.9 39 -9.5 14.9
15:35 1018 30.06 848 25.04 3.1 37.5 42 -8.7 16.4
15:40 1018 30.06 848 25.04 3.7 38.7 38 -9.4 15
15:45 1018 30.06 847 25.01 4.4 39.9 38 -8.8 16.2
15:50 1018 30.06 847 25.01 4.2 39.5 37 -9.2 15.5
15:55 1018 30.06 847 25.01 4.7 40.5 36 -9 15.8
16:00 1018 30.06 847 25.01 5 41 34 -9.5 15
16:05 1018 30.06 847 25.01 4.6 40.3 39 -8.2 17.2
16:10 1018 30.06 847 25.01 4.5 40 36 -9.4 15.1
16:15 1018 30.06 847 25.01 4.3 39.8 39 -8.5 16.7
16:20 1018 30.06 847 25.01 3.9 39 40 -8.4 17
16:25 1018 30.06 847 25.01 4.3 39.7 38 -8.9 15.9
16:30 1018 30.06 847 25.01 4.3 39.7 36 -9.4 15.1
16:35 1017 30.03 847 25.01 4.2 39.5 38 -9.1 15.6
16:40 1017 30.03 847 25.01 4.5 40.2 38 -8.4 16.8
16:45 1017 30.03 847 25.01 4.9 40.9 36 -8.8 16.2
16:50 1017 30.03 847 25.01 4.9 40.9 36 -9 15.8
16:55 1017 30.03 846 24.98 4.9 40.9 37 -8.8 16.2
17:00 1017 30.03 846 24.98 5.3 41.6 37 -8.3 17.1
17:05 1017 30.03 846 24.98 5.5 41.9 36 -8.3 17.1
17:10 1017 30.03 846 24.98 5.2 41.4 38 -7.8 17.9
17:15 1017 30.03 846 24.98 4.4 40 41 -7.8 17.9
17:20 1017 30.03 846 24.98 4.1 39.5 41 -8.1 17.4
17:25 1017 30.03 846 24.98 4.1 39.4 43 -7.5 18.5
17:30 1017 30.03 846 24.98 4 39.2 40 -8.4 16.9
17:35 1017 30.03 846 24.98 3.9 39.1 39 -8.7 16.3
17:40 1017 30.03 846 24.98 3.9 39 40 -8.4 16.9
17:45 1017 30.03 846 24.98 3.8 38.9 42 -8 17.6
17:50 1017 30.03 846 24.98 4 39.2 40 -8.6 16.6
17:55 1017 30.03 846 24.98 4 39.3 37 -9.2 15.4
18:00 1017 30.03 846 24.98 3.8 38.8 37 -9.5 15
18:05 1017 30.03 846 24.98 3.6 38.4 39 -9.2 15.4
18:10 1017 30.03 846 24.98 3.5 38.4 39 -9.1 15.6
18:15 1017 30.03 846 24.98 3.7 38.7 37 -9.6 14.6
18:20 1017 30.03 846 24.98 3.9 38.9 35 -10.4 13.3
18:25 1016 30 846 24.98 3.9 39 34 -10.7 12.7
18:30 1016 30 846 24.98 3.9 39.1 35 -10.1 13.7
18:35 1016 30 845 24.95 3.9 39.1 34 -10.7 12.8
18:40 1016 30 845 24.95 3.9 38.9 35 -10.4 13.4
18:45 1016 30 845 24.95 3.9 39 35 -10.3 13.4
18:50 1016 30 845 24.95 3.8 38.8 37 -9.7 14.6
18:55 1016 30 845 24.95 3.6 38.5 37 -9.9 14.2
19:00 1016 30 845 24.95 3.5 38.3 36 -10.3 13.5
19:05 1016 30 845 24.95 3.6 38.5 34 -11 12.2
19:10 1016 30 845 24.95 3.6 38.5 34 -11 12.2
19:15 1016 30 845 24.95 3.7 38.6 34 -11 12.3
19:20 1016 30 845 24.95 3.5 38.4 34 -10.9 12.4
19:25 1016 30 845 24.95 3.5 38.3 33 -11.3 11.6
19:30 1016 30 845 24.95 3.5 38.3 34 -11 12.1
19:35 1016 30 845 24.95 3.3 37.9 37 -10 13.9
19:40 1016 30 845 24.95 2.8 37.1 40 -9.3 15.2
19:45 1016 30 845 24.95 2.5 36.6 39 -10.2 13.7
19:50 1016 30 845 24.95 2.7 36.8 39 -9.8 14.3
19:55 1016 30 845 24.95 2.5 36.6 40 -9.8 14.4
20:00 1016 30 845 24.95 2.2 35.9 43 -9.3 15.3
20:05 1016 30 845 24.95 1.9 35.4 43 -9.5 14.9
20:10 1016 30 845 24.95 2.1 35.9 43 -9.2 15.5
20:15 1016 30 845 24.95 2.3 36.2 42 -9.4 15
20:20 1016 30 845 24.95 2.5 36.4 39 -10.3 13.5
20:25 1015 29.97 845 24.95 2.7 36.8 35 -11.3 11.7
20:30 1015 29.97 845 24.95 3.3 37.9 35 -10.8 12.6
20:35 1015 29.97 845 24.95 3.2 37.7 36 -10.3 13.4
20:40 1015 29.97 845 24.95 2.9 37.1 39 -9.7 14.6
20:45 1015 29.97 845 24.95 2.5 36.5 41 -9.6 14.8
20:50 1015 29.97 845 24.95 2.4 36.4 40 -9.8 14.3
20:55 1015 29.97 845 24.95 2.5 36.4 39 -10 14
21:00 1015 29.97 845 24.95 2.5 36.5 40 -9.9 14.1
21:05 1015 29.97 845 24.95 2.5 36.4 38 -10.4 13.2
21:10 1015 29.97 845 24.95 2.5 36.5 40 -9.9 14.3
21:15 1015 29.97 844 24.92 2.5 36.5 37 -10.6 12.9
21:20 1015 29.97 844 24.92 2.4 36.3 39 -10.1 13.7
21:25 1015 29.97 844 24.92 2.1 35.9 40 -10.2 13.6
21:30 1015 29.97 844 24.92 2.1 35.8 40 -10.1 13.8
21:35 1015 29.97 844 24.92 2.1 35.9 39 -10.3 13.5
21:40 1015 29.97 844 24.92 1.8 35.3 42 -9.7 14.5
21:45 1015 29.97 844 24.92 1.9 35.4 40 -10.2 13.6
21:50 1015 29.97 844 24.92 2 35.6 43 -9.3 15.3
21:55 1015 29.97 844 24.92 1.6 34.9 45 -9 15.7
22:00 1015 29.97 844 24.92 1.1 34 48 -8.8 16.2
22:05 1015 29.97 844 24.92 0.7 33.2 49 -8.9 16
22:10 1015 29.97 844 24.92 0.5 32.9 49 -8.9 16
22:15 1015 29.97 844 24.92 0.4 32.8 48 -9.4 15.1
22:20 1015 29.97 844 24.92 0.4 32.7 49 -9 15.8
22:25 1015 29.97 844 24.92 0.3 32.5 49 -9.3 15.2
22:30 1015 29.97 844 24.92 0.7 33.3 45 -9.9 14.2
22:35 1015 29.97 844 24.92 0.9 33.6 46 -9.5 15
22:40 1015 29.97 844 24.92 0.9 33.6 46 -9.5 14.8
22:45 1015 29.97 844 24.92 0.5 32.9 48 -9.2 15.5
22:50 1015 29.97 844 24.92 0.1 32.3 49 -9.4 15.1
22:55 1015 29.97 844 24.92 0.1 32.2 49 -9.5 15
23:00 1015 29.97 844 24.92 0.1 32.2 49 -9.5 14.9
23:05 1015 29.97 844 24.92 0.3 32.5 47 -9.8 14.4
23:10 1015 29.97 844 24.92 0.6 33.1 47 -9.6 14.8
23:15 1015 29.97 844 24.92 0.4 32.7 47 -9.7 14.6
23:20 1014 29.94 844 24.92 0.4 32.7 45 -10.2 13.6
23:25 1014 29.94 844 24.92 0.6 33.1 44 -10.3 13.4
23:30 1014 29.94 844 24.92 0.6 33.1 44 -10.4 13.3
23:35 1014 29.94 844 24.92 0.6 33.1 45 -9.9 14.1
23:40 1014 29.94 844 24.92 0.6 33.1 41 -11.1 12.1
23:45 1014 29.94 843 24.89 0.9 33.6 43 -10.2 13.6
23:50 1014 29.94 843 24.89 0.8 33.4 44 -10.2 13.7
23:55 1014 29.94 843 24.89 0.2 32.4 46 -10.2 13.7
24:00 1014 29.94 843 24.89 0.1 32.1 44 -10.7 12.8